createdAt,value
2018-05-17T00:01:18.915Z,18.00
2018-05-17T00:03:46.731Z,18.00
2018-05-17T00:06:14.037Z,18.00
2018-05-17T00:08:41.196Z,18.00
2018-05-17T00:11:08.404Z,18.00
2018-05-17T00:13:35.655Z,17.90
2018-05-17T00:16:02.812Z,17.90
2018-05-17T00:18:29.975Z,17.90
2018-05-17T00:20:57.135Z,18.00
2018-05-17T00:23:25.289Z,18.00
2018-05-17T00:25:52.449Z,17.90
2018-05-17T00:28:19.607Z,17.90
2018-05-17T00:30:46.849Z,18.00
2018-05-17T00:33:14.780Z,18.00
2018-05-17T00:35:42.874Z,17.90
2018-05-17T00:38:10.893Z,18.00
2018-05-17T00:40:38.052Z,17.90
2018-05-17T00:43:05.212Z,17.90
2018-05-17T00:45:32.519Z,17.90
2018-05-17T00:48:00.575Z,17.90
2018-05-17T00:50:27.779Z,17.90
2018-05-17T00:53:01.659Z,17.90
2018-05-17T00:55:28.902Z,17.90
2018-05-17T00:57:56.154Z,17.90
2018-05-17T01:00:24.088Z,17.90
2018-05-17T01:02:52.015Z,17.90
2018-05-17T01:05:20.091Z,17.90
2018-05-17T01:07:47.320Z,17.90
2018-05-17T01:10:15.289Z,17.90
2018-05-17T01:12:42.448Z,17.90
2018-05-17T01:15:10.513Z,17.90
2018-05-17T01:17:37.771Z,17.90
2018-05-17T01:20:05.892Z,17.90
2018-05-17T01:22:33.823Z,17.90
2018-05-17T01:25:01.800Z,17.90
2018-05-17T01:27:28.970Z,17.90
2018-05-17T01:29:56.208Z,17.90
2018-05-17T01:32:24.360Z,17.90
2018-05-17T01:34:52.427Z,17.90
2018-05-17T01:37:25.528Z,17.90
2018-05-17T01:39:53.619Z,17.90
2018-05-17T01:42:21.748Z,17.90
2018-05-17T01:44:48.912Z,17.90
2018-05-17T01:47:17.011Z,17.90
2018-05-17T01:49:45.172Z,17.90
2018-05-17T01:52:12.332Z,17.90
2018-05-17T01:54:39.583Z,17.80
2018-05-17T01:57:08.339Z,17.90
2018-05-17T01:59:35.504Z,17.90
2018-05-17T02:02:02.803Z,17.90
2018-05-17T02:04:30.835Z,17.90
2018-05-17T02:06:58.776Z,17.90
2018-05-17T02:09:26.743Z,17.90
2018-05-17T02:11:54.760Z,17.90
2018-05-17T02:14:22.925Z,17.90
2018-05-17T02:16:51.002Z,17.90
2018-05-17T02:19:19.142Z,17.80
2018-05-17T02:21:47.245Z,17.90
2018-05-17T02:24:14.440Z,17.90
2018-05-17T02:26:42.471Z,17.90
2018-05-17T02:29:09.727Z,17.80
2018-05-17T02:31:37.660Z,17.80
2018-05-17T02:34:06.544Z,17.80
2018-05-17T02:36:34.555Z,17.90
2018-05-17T02:39:01.799Z,17.80
2018-05-17T02:41:29.730Z,17.80
2018-05-17T02:43:57.668Z,17.80
2018-05-17T02:46:24.901Z,17.80
2018-05-17T02:48:52.951Z,17.80
2018-05-17T02:51:20.225Z,17.80
2018-05-17T02:53:48.295Z,17.80
2018-05-17T02:56:15.491Z,17.80
2018-05-17T02:58:43.616Z,17.80
2018-05-17T03:01:11.733Z,17.80
2018-05-17T03:03:39.239Z,17.80
2018-05-17T03:06:07.356Z,17.80
2018-05-17T03:08:34.571Z,17.80
2018-05-17T03:11:01.744Z,17.80
2018-05-17T03:13:28.989Z,17.80
2018-05-17T03:15:56.151Z,17.80
2018-05-17T03:18:23.307Z,17.80
2018-05-17T03:20:50.464Z,17.80
2018-05-17T03:23:17.633Z,17.80
2018-05-17T03:25:44.883Z,17.80
2018-05-17T03:28:11.995Z,17.80
2018-05-17T03:30:39.155Z,17.80
2018-05-17T03:33:06.311Z,17.80
2018-05-17T03:35:33.472Z,17.80
2018-05-17T03:38:01.576Z,17.80
2018-05-17T03:40:30.419Z,17.80
2018-05-17T03:42:57.668Z,17.80
2018-05-17T03:45:24.828Z,17.80
2018-05-17T03:47:52.768Z,17.80
2018-05-17T03:50:19.975Z,17.80
2018-05-17T03:52:48.052Z,17.80
2018-05-17T03:55:15.985Z,17.80
2018-05-17T03:57:43.180Z,17.80
2018-05-17T04:00:11.271Z,17.80
2018-05-17T04:02:45.231Z,17.80
2018-05-17T04:05:18.279Z,17.80
2018-05-17T04:07:46.347Z,17.80
2018-05-17T04:10:15.208Z,17.80
2018-05-17T04:12:42.377Z,17.80
2018-05-17T04:15:10.308Z,17.80
2018-05-17T04:17:37.467Z,17.80
2018-05-17T04:20:04.636Z,17.80
2018-05-17T04:22:31.791Z,17.80
2018-05-17T04:24:59.740Z,17.80
2018-05-17T04:27:26.904Z,17.80
2018-05-17T04:29:54.121Z,17.80
2018-05-17T04:32:22.193Z,17.80
2018-05-17T04:34:49.351Z,17.80
2018-05-17T04:37:17.425Z,17.80
2018-05-17T04:39:44.583Z,17.80
2018-05-17T04:42:11.823Z,17.80
2018-05-17T04:44:39.023Z,17.80
2018-05-17T04:47:06.272Z,17.80
2018-05-17T04:49:34.216Z,17.80
2018-05-17T04:52:01.378Z,17.80
2018-05-17T04:54:28.583Z,17.80
2018-05-17T04:56:55.739Z,17.80
2018-05-17T04:59:23.786Z,17.80
2018-05-17T05:01:52.613Z,17.80
2018-05-17T05:04:19.780Z,17.80
2018-05-17T05:06:46.935Z,17.80
2018-05-17T05:09:15.008Z,17.80
2018-05-17T05:11:43.072Z,17.80
2018-05-17T05:14:11.138Z,17.80
2018-05-17T05:16:38.308Z,17.80
2018-05-17T05:19:05.537Z,17.70
2018-05-17T05:21:32.701Z,17.80
2018-05-17T05:24:00.791Z,17.80
2018-05-17T05:26:28.947Z,17.70
2018-05-17T05:28:57.135Z,17.80
2018-05-17T05:31:25.109Z,17.70
2018-05-17T05:33:53.067Z,17.70
2018-05-17T05:36:21.162Z,17.70
2018-05-17T05:38:48.329Z,17.70
2018-05-17T05:41:16.256Z,17.70
2018-05-17T05:43:43.495Z,17.70
2018-05-17T05:46:10.758Z,17.70
2018-05-17T05:48:38.002Z,17.80
2018-05-17T05:51:06.059Z,17.70
2018-05-17T05:53:33.336Z,17.80
2018-05-17T05:56:01.450Z,17.70
2018-05-17T05:58:29.476Z,17.70
2018-05-17T06:00:57.654Z,17.70
2018-05-17T06:03:24.814Z,17.70
2018-05-17T06:05:52.068Z,17.70
2018-05-17T06:08:20.227Z,17.60
2018-05-17T06:10:47.331Z,17.70
2018-05-17T06:13:15.443Z,17.70
2018-05-17T06:15:43.631Z,17.90
2018-05-17T06:18:11.589Z,18.10
2018-05-17T06:20:38.862Z,18.20
2018-05-17T06:23:07.029Z,18.30
2018-05-17T06:25:34.223Z,18.40
2018-05-17T06:28:01.439Z,18.40
2018-05-17T06:30:29.546Z,18.50
2018-05-17T06:32:56.864Z,18.60
2018-05-17T06:35:24.117Z,18.60
2018-05-17T06:37:51.272Z,18.60
2018-05-17T06:40:18.426Z,18.60
2018-05-17T06:42:45.660Z,18.60
2018-05-17T06:45:12.827Z,18.60
2018-05-17T06:47:39.983Z,18.60
2018-05-17T06:50:07.143Z,18.60
2018-05-17T06:52:34.378Z,18.60
2018-05-17T06:55:01.638Z,18.60
2018-05-17T06:57:28.894Z,18.60
2018-05-17T06:59:56.138Z,18.50
2018-05-17T07:02:23.300Z,18.50
2018-05-17T07:04:50.540Z,18.50
2018-05-17T07:07:17.735Z,18.50
2018-05-17T07:09:44.899Z,18.50
2018-05-17T07:12:12.867Z,18.50
2018-05-17T07:14:40.033Z,18.50
2018-05-17T07:17:08.035Z,18.50
2018-05-17T07:19:36.119Z,18.50
2018-05-17T07:22:03.365Z,18.50
2018-05-17T07:24:30.620Z,18.50
2018-05-17T07:26:57.875Z,18.40
2018-05-17T07:29:25.036Z,18.40
2018-05-17T07:31:52.194Z,18.40
2018-05-17T07:34:19.428Z,18.40
2018-05-17T07:36:46.591Z,18.40
2018-05-17T07:39:15.358Z,18.40
2018-05-17T07:41:43.346Z,18.40
2018-05-17T07:44:10.507Z,18.40
2018-05-17T07:46:37.750Z,18.40
2018-05-17T07:49:04.944Z,18.40
2018-05-17T07:51:32.103Z,18.40
2018-05-17T07:54:00.938Z,18.40
2018-05-17T07:56:28.191Z,18.40
2018-05-17T07:58:56.263Z,18.40
2018-05-17T08:01:23.424Z,18.40
2018-05-17T08:03:50.584Z,18.40
2018-05-17T08:06:18.655Z,18.40
2018-05-17T08:08:45.812Z,18.40
2018-05-17T08:11:13.043Z,18.40
2018-05-17T08:13:40.212Z,18.40
2018-05-17T08:16:07.379Z,18.40
2018-05-17T08:18:34.540Z,18.40
2018-05-17T08:21:01.700Z,18.30
2018-05-17T08:23:29.627Z,18.30
2018-05-17T08:25:56.871Z,18.30
2018-05-17T08:28:24.032Z,18.30
2018-05-17T08:30:51.232Z,18.30
2018-05-17T08:33:19.162Z,18.40
2018-05-17T08:35:46.320Z,18.40
2018-05-17T08:38:13.551Z,18.40
2018-05-17T08:40:40.712Z,18.40
2018-05-17T08:43:07.871Z,18.40
2018-05-17T08:45:35.084Z,18.40
2018-05-17T08:48:02.992Z,18.40
2018-05-17T08:50:30.224Z,18.40
2018-05-17T08:52:57.385Z,18.40
2018-05-17T08:55:24.547Z,18.40
2018-05-17T08:57:51.714Z,18.40
2018-05-17T09:00:18.883Z,18.40
2018-05-17T09:02:46.847Z,18.30
2018-05-17T09:05:14.047Z,18.30
2018-05-17T09:07:41.204Z,18.30
2018-05-17T09:10:08.452Z,18.40
2018-05-17T09:12:35.611Z,18.30
2018-05-17T09:15:02.770Z,18.30
2018-05-17T09:17:29.926Z,18.30
2018-05-17T09:19:57.080Z,18.30
2018-05-17T09:22:24.264Z,18.30
2018-05-17T09:24:52.199Z,18.30
2018-05-17T09:27:19.356Z,18.30
2018-05-17T09:29:46.563Z,18.30
2018-05-17T09:32:13.724Z,18.30
2018-05-17T09:34:40.897Z,18.30
2018-05-17T09:37:08.056Z,18.30
2018-05-17T09:39:35.215Z,18.30
2018-05-17T09:42:02.384Z,18.30
2018-05-17T09:44:29.593Z,18.30
2018-05-17T09:46:57.291Z,18.30
2018-05-17T09:49:25.244Z,18.30
2018-05-17T09:51:56.423Z,18.30
2018-05-17T09:54:23.588Z,18.30
2018-05-17T09:56:51.644Z,18.30
2018-05-17T09:59:19.720Z,18.30
2018-05-17T10:01:46.884Z,18.30
2018-05-17T10:04:14.779Z,18.30
2018-05-17T10:06:42.879Z,18.30
2018-05-17T10:09:10.943Z,18.30
2018-05-17T10:11:38.103Z,18.30
2018-05-17T10:14:06.160Z,18.30
2018-05-17T10:16:33.325Z,18.30
2018-05-17T10:19:01.394Z,18.30
2018-05-17T10:21:28.551Z,18.30
2018-05-17T10:23:56.536Z,18.30
2018-05-17T10:26:23.700Z,18.30
2018-05-17T10:28:51.807Z,18.30
2018-05-17T10:31:19.727Z,18.20
2018-05-17T10:33:47.663Z,18.20
2018-05-17T10:36:16.732Z,18.20
2018-05-17T10:38:44.703Z,18.20
2018-05-17T10:41:12.717Z,18.20
2018-05-17T10:43:40.723Z,18.20
2018-05-17T10:46:07.921Z,18.20
2018-05-17T10:48:35.859Z,18.20
2018-05-17T10:51:03.885Z,18.20
2018-05-17T10:53:32.101Z,18.20
2018-05-17T10:55:59.299Z,18.20
2018-05-17T10:58:26.563Z,18.20
2018-05-17T11:00:54.616Z,18.20
2018-05-17T11:03:22.679Z,18.20
2018-05-17T11:05:51.192Z,18.20
2018-05-17T11:08:18.355Z,18.20
2018-05-17T11:10:46.517Z,18.20
2018-05-17T11:13:13.676Z,18.20
2018-05-17T11:15:40.927Z,18.20
2018-05-17T11:18:08.092Z,18.20
2018-05-17T11:20:35.292Z,18.20
2018-05-17T11:23:04.121Z,18.10
2018-05-17T11:25:31.284Z,18.10
2018-05-17T11:27:59.802Z,18.20
2018-05-17T11:30:27.740Z,18.20
2018-05-17T11:32:55.751Z,18.20
2018-05-17T11:35:23.055Z,18.20
2018-05-17T11:37:50.255Z,18.20
2018-05-17T11:40:17.457Z,18.10
2018-05-17T11:42:44.615Z,18.10
2018-05-17T11:45:11.783Z,18.20
2018-05-17T11:47:38.944Z,18.10
2018-05-17T11:50:06.107Z,18.10
2018-05-17T11:52:33.263Z,18.20
2018-05-17T11:55:01.220Z,18.10
2018-05-17T11:57:28.402Z,18.10
2018-05-17T11:59:55.563Z,18.10
2018-05-17T12:02:22.718Z,18.10
2018-05-17T12:04:49.879Z,18.10
2018-05-17T12:07:17.130Z,18.10
2018-05-17T12:09:44.281Z,18.10
2018-05-17T12:12:11.453Z,18.10
2018-05-17T12:14:38.612Z,18.10
2018-05-17T12:17:05.775Z,18.10
2018-05-17T12:19:32.936Z,18.10
2018-05-17T12:22:00.145Z,18.10
2018-05-17T12:24:27.301Z,18.10
2018-05-17T12:26:54.456Z,18.20
2018-05-17T12:29:21.619Z,18.10
2018-05-17T12:31:49.659Z,18.10
2018-05-17T12:34:16.740Z,18.10
2018-05-17T12:36:44.685Z,18.10
2018-05-17T12:39:11.945Z,18.10
2018-05-17T12:41:40.013Z,18.10
2018-05-17T12:44:07.202Z,18.10
2018-05-17T12:46:34.360Z,18.10
2018-05-17T12:49:01.676Z,18.10
2018-05-17T12:51:28.837Z,18.10
2018-05-17T12:53:56.080Z,18.10
2018-05-17T12:56:23.334Z,18.10
2018-05-17T12:58:50.517Z,18.10
2018-05-17T13:01:17.692Z,18.10
2018-05-17T13:03:45.655Z,18.10
2018-05-17T13:06:12.819Z,18.10
2018-05-17T13:08:41.516Z,18.10
2018-05-17T13:11:09.521Z,18.10
2018-05-17T13:13:37.717Z,18.10
2018-05-17T13:16:04.944Z,18.10
2018-05-17T13:18:33.187Z,18.10
2018-05-17T13:21:00.316Z,18.10
2018-05-17T13:23:28.291Z,18.10
2018-05-17T13:25:55.450Z,18.10
2018-05-17T13:28:23.465Z,18.10
2018-05-17T13:30:50.623Z,18.10
2018-05-17T13:33:17.834Z,18.10
2018-05-17T13:35:45.760Z,18.10
2018-05-17T13:38:12.924Z,18.10
2018-05-17T13:40:40.092Z,18.10
2018-05-17T13:43:08.024Z,18.10
2018-05-17T13:45:35.959Z,18.10
2018-05-17T13:48:03.172Z,18.10
2018-05-17T13:50:30.331Z,18.10
2018-05-17T13:52:57.495Z,18.10
2018-05-17T13:55:26.383Z,18.10
2018-05-17T13:57:53.555Z,18.10
2018-05-17T14:00:20.715Z,18.10
2018-05-17T14:02:47.905Z,18.10
2018-05-17T14:05:16.004Z,18.10
2018-05-17T14:07:43.175Z,18.10
2018-05-17T14:10:11.095Z,18.10
2018-05-17T14:12:39.163Z,18.10
2018-05-17T14:15:07.358Z,18.10
2018-05-17T14:17:36.252Z,18.10
2018-05-17T14:20:03.504Z,18.10
2018-05-17T14:22:31.460Z,18.10
2018-05-17T14:24:59.431Z,18.10
2018-05-17T14:27:27.488Z,18.10
2018-05-17T14:29:55.591Z,18.10
2018-05-17T14:32:22.759Z,18.10
2018-05-17T14:34:51.592Z,18.10
2018-05-17T14:37:19.695Z,18.10
2018-05-17T14:39:46.859Z,18.10
2018-05-17T14:42:14.020Z,18.10
2018-05-17T14:44:41.947Z,18.10
2018-05-17T14:47:09.108Z,18.10
2018-05-17T14:49:37.096Z,18.10
2018-05-17T14:52:04.261Z,18.10
2018-05-17T14:54:31.991Z,18.10
2018-05-17T14:56:59.152Z,18.10
2018-05-17T14:59:27.264Z,18.10
2018-05-17T15:01:56.093Z,18.10
2018-05-17T15:04:24.194Z,18.10
2018-05-17T15:06:52.247Z,18.10
2018-05-17T15:09:20.368Z,18.10
2018-05-17T15:11:49.204Z,18.10
2018-05-17T15:14:17.275Z,18.00
2018-05-17T15:16:45.450Z,18.10
2018-05-17T15:19:13.440Z,18.10
2018-05-17T15:21:40.950Z,18.10
2018-05-17T15:24:09.660Z,18.10
2018-05-17T15:26:37.759Z,18.10
2018-05-17T15:29:05.856Z,18.10
2018-05-17T15:31:33.960Z,18.10
2018-05-17T15:34:01.887Z,18.10
2018-05-17T15:36:29.819Z,18.00
2018-05-17T15:38:56.977Z,18.10
2018-05-17T15:41:24.923Z,18.10
2018-05-17T15:43:52.087Z,18.10
2018-05-17T15:46:20.196Z,18.00
2018-05-17T15:48:48.286Z,18.00
2018-05-17T15:51:15.483Z,18.00
2018-05-17T15:53:42.642Z,18.00
2018-05-17T15:56:10.179Z,18.10
2018-05-17T15:58:38.108Z,18.00
2018-05-17T16:01:05.271Z,18.00
2018-05-17T16:03:32.432Z,18.00
2018-05-17T16:05:59.591Z,18.00
2018-05-17T16:08:28.381Z,18.00
2018-05-17T16:10:56.431Z,18.00
2018-05-17T16:13:23.592Z,18.00
2018-05-17T16:15:50.757Z,18.00
2018-05-17T16:18:19.595Z,18.00
2018-05-17T16:20:46.760Z,18.00
2018-05-17T16:23:14.744Z,18.00
2018-05-17T16:25:41.908Z,18.00
2018-05-17T16:28:09.067Z,18.00
2018-05-17T16:30:37.781Z,18.10
2018-05-17T16:33:04.984Z,18.00
2018-05-17T16:35:32.145Z,18.00
2018-05-17T16:37:59.356Z,18.00
2018-05-17T16:40:26.511Z,18.10
2018-05-17T16:42:53.679Z,18.00
2018-05-17T16:45:20.844Z,18.00
2018-05-17T16:47:48.016Z,18.00
2018-05-17T16:50:16.762Z,18.00
2018-05-17T16:52:43.974Z,18.00
2018-05-17T16:55:11.891Z,18.00
2018-05-17T16:57:39.055Z,18.00
2018-05-17T17:00:06.282Z,18.00
2018-05-17T17:02:33.450Z,18.00
2018-05-17T17:05:01.687Z,18.00
2018-05-17T17:07:28.807Z,18.10
2018-05-17T17:09:55.971Z,18.00
2018-05-17T17:12:23.901Z,18.00
2018-05-17T17:14:51.068Z,18.00
2018-05-17T17:17:18.270Z,18.00
2018-05-17T17:19:45.436Z,18.00
2018-05-17T17:22:12.653Z,18.00
2018-05-17T17:24:41.472Z,18.00
2018-05-17T17:27:09.431Z,18.00
2018-05-17T17:29:37.495Z,18.00
2018-05-17T17:32:04.671Z,18.00
2018-05-17T17:34:31.844Z,18.00
2018-05-17T17:36:59.072Z,18.00
2018-05-17T17:39:26.364Z,18.00
2018-05-17T17:41:53.583Z,18.00
2018-05-17T17:44:20.806Z,18.00
2018-05-17T17:46:47.972Z,18.00
2018-05-17T17:49:16.059Z,18.00
2018-05-17T17:51:44.012Z,18.00
2018-05-17T17:54:12.109Z,18.00
2018-05-17T17:56:39.352Z,18.00
2018-05-17T17:59:06.609Z,18.00
2018-05-17T18:01:33.772Z,18.00
2018-05-17T18:04:01.009Z,18.00
2018-05-17T18:06:29.079Z,18.00
2018-05-17T18:08:56.244Z,18.00
2018-05-17T18:11:23.490Z,18.00
2018-05-17T18:13:50.660Z,18.00
2018-05-17T18:16:17.896Z,18.00
2018-05-17T18:18:45.160Z,18.00
2018-05-17T18:21:12.364Z,18.00
2018-05-17T18:23:40.716Z,18.00
2018-05-17T18:26:08.169Z,18.00
2018-05-17T18:28:35.699Z,18.00
2018-05-17T18:31:03.469Z,18.00
2018-05-17T18:33:31.053Z,18.00
2018-05-17T18:35:59.057Z,18.00
2018-05-17T18:38:28.106Z,18.00
2018-05-17T18:40:56.198Z,18.00
2018-05-17T18:43:25.091Z,18.00
2018-05-17T18:45:53.568Z,18.00
2018-05-17T18:48:21.223Z,18.00
2018-05-17T18:50:48.865Z,18.00
2018-05-17T18:53:17.246Z,18.00
2018-05-17T18:55:45.276Z,18.00
2018-05-17T18:58:13.261Z,18.00
2018-05-17T19:00:41.462Z,17.90
2018-05-17T19:03:08.897Z,17.90
2018-05-17T19:05:36.233Z,17.90
2018-05-17T19:08:04.247Z,17.90
2018-05-17T19:10:31.524Z,17.90
2018-05-17T19:12:58.892Z,17.90
2018-05-17T19:15:26.314Z,17.90
2018-05-17T19:17:53.852Z,17.90
2018-05-17T19:20:22.003Z,17.90
2018-05-17T19:22:49.196Z,17.90
2018-05-17T19:25:16.559Z,17.90
2018-05-17T19:27:43.867Z,17.90
2018-05-17T19:30:11.871Z,17.90
2018-05-17T19:32:39.039Z,17.90
2018-05-17T19:35:06.441Z,17.90
2018-05-17T19:37:34.762Z,17.90
2018-05-17T19:40:02.027Z,17.90
2018-05-17T19:42:29.317Z,17.90
2018-05-17T19:44:56.695Z,17.90
2018-05-17T19:47:24.882Z,17.90
2018-05-17T19:49:52.854Z,17.90
2018-05-17T19:52:20.157Z,17.90
2018-05-17T19:54:47.489Z,17.90
2018-05-17T19:57:14.880Z,17.90
2018-05-17T19:59:42.509Z,17.90
2018-05-17T20:02:09.697Z,17.90
2018-05-17T20:04:37.527Z,17.90
2018-05-17T20:07:04.760Z,17.90
2018-05-17T20:09:31.934Z,17.90
2018-05-17T20:11:59.215Z,17.90
2018-05-17T20:14:26.384Z,17.90
2018-05-17T20:16:54.340Z,18.20
2018-05-17T20:19:21.559Z,18.20
2018-05-17T20:21:48.729Z,18.40
2018-05-17T20:24:16.012Z,18.50
2018-05-17T20:26:44.035Z,18.60
2018-05-17T20:29:11.245Z,18.60
2018-05-17T20:31:39.175Z,18.60
2018-05-17T20:34:06.353Z,18.60
2018-05-17T20:36:34.304Z,18.60
2018-05-17T20:39:01.516Z,18.60
2018-05-17T20:41:29.708Z,18.60
2018-05-17T20:43:56.931Z,18.60
2018-05-17T20:46:24.143Z,18.60
2018-05-17T20:48:51.321Z,18.50
2018-05-17T20:51:19.267Z,18.50
2018-05-17T20:53:46.450Z,18.50
2018-05-17T20:56:14.455Z,18.50
2018-05-17T20:58:41.710Z,18.50
2018-05-17T21:01:09.648Z,18.50
2018-05-17T21:03:36.868Z,18.50
2018-05-17T21:06:04.042Z,18.50
2018-05-17T21:08:32.088Z,18.50
2018-05-17T21:10:59.256Z,18.50
2018-05-17T21:13:28.303Z,18.40
2018-05-17T21:15:55.592Z,18.40
2018-05-17T21:18:22.848Z,18.40
2018-05-17T21:20:51.595Z,18.40
2018-05-17T21:23:18.746Z,18.40
2018-05-17T21:25:45.932Z,18.40
2018-05-17T21:28:13.150Z,18.40
2018-05-17T21:30:40.312Z,18.40
2018-05-17T21:33:07.596Z,18.40
2018-05-17T21:35:35.633Z,18.30
2018-05-17T21:38:02.836Z,18.30
2018-05-17T21:40:30.811Z,18.30
2018-05-17T21:42:58.828Z,18.30
2018-05-17T21:45:25.996Z,18.30
2018-05-17T21:47:53.160Z,18.30
2018-05-17T21:50:20.324Z,18.30
2018-05-17T21:52:49.065Z,18.30
2018-05-17T21:55:16.426Z,18.30
2018-05-17T21:57:43.593Z,18.30
2018-05-17T22:00:10.829Z,18.30
2018-05-17T22:02:37.997Z,18.20
2018-05-17T22:05:05.237Z,18.20
2018-05-17T22:07:32.488Z,18.20
2018-05-17T22:10:00.363Z,18.30
2018-05-17T22:12:28.631Z,18.20
2018-05-17T22:14:56.584Z,18.20
2018-05-17T22:17:24.647Z,18.20
2018-05-17T22:19:52.851Z,18.20
2018-05-17T22:22:20.020Z,18.20
2018-05-17T22:24:47.257Z,18.20
2018-05-17T22:27:14.514Z,18.20
2018-05-17T22:29:41.676Z,18.20
2018-05-17T22:32:08.847Z,18.20
2018-05-17T22:34:36.012Z,18.10
2018-05-17T22:37:04.849Z,18.10
2018-05-17T22:39:32.051Z,18.10
2018-05-17T22:42:01.037Z,18.10
2018-05-17T22:44:30.644Z,18.10
2018-05-17T22:46:57.851Z,18.10
2018-05-17T22:49:25.089Z,18.10
2018-05-17T22:51:52.369Z,18.10
2018-05-17T22:54:19.594Z,18.10
2018-05-17T22:56:52.525Z,18.10
2018-05-17T22:59:19.731Z,18.10
2018-05-17T23:01:46.892Z,18.10
2018-05-17T23:04:14.871Z,18.10
2018-05-17T23:06:42.850Z,18.10
2018-05-17T23:09:10.064Z,18.10
2018-05-17T23:11:38.082Z,18.00
2018-05-17T23:14:05.244Z,18.00
2018-05-17T23:16:33.225Z,18.00
2018-05-17T23:19:01.943Z,18.00
2018-05-17T23:21:29.955Z,18.00
2018-05-17T23:23:57.244Z,18.00
2018-05-17T23:26:24.796Z,18.00
2018-05-17T23:28:52.226Z,18.00
2018-05-17T23:31:19.392Z,18.00
2018-05-17T23:33:47.108Z,18.00
2018-05-17T23:36:15.844Z,18.00
2018-05-17T23:38:44.142Z,18.00
2018-05-17T23:41:17.303Z,18.00
2018-05-17T23:43:45.456Z,18.00
2018-05-17T23:46:13.652Z,18.00
2018-05-17T23:48:41.751Z,18.00
2018-05-17T23:51:09.833Z,18.00
2018-05-17T23:53:36.995Z,18.00
2018-05-17T23:56:05.008Z,18.00
2018-05-17T23:58:32.958Z,18.00
